sensor_id;sensor_type;location;lat;lon;timestamp;P1;durP1;ratioP1;P2;durP2;ratioP2
37451;SDS011;23314;51.114;6.900;2024-03-29T00:01:01;2.63;;;1.23;;
37451;SDS011;23314;51.114;6.900;2024-03-29T00:03:27;4.43;;;1.13;;
37451;SDS011;23314;51.114;6.900;2024-03-29T00:05:52;2.90;;;1.30;;
37451;SDS011;23314;51.114;6.900;2024-03-29T00:08:18;4.47;;;1.60;;
37451;SDS011;23314;51.114;6.900;2024-03-29T00:10:43;1.77;;;1.20;;
37451;SDS011;23314;51.114;6.900;2024-03-29T00:13:12;3.57;;;1.40;;
37451;SDS011;23314;51.114;6.900;2024-03-29T00:15:37;1.93;;;1.27;;
37451;SDS011;23314;51.114;6.900;2024-03-29T00:18:03;3.13;;;1.10;;
37451;SDS011;23314;51.114;6.900;2024-03-29T00:20:28;3.77;;;1.20;;
37451;SDS011;23314;51.114;6.900;2024-03-29T00:22:54;3.03;;;1.10;;
37451;SDS011;23314;51.114;6.900;2024-03-29T00:25:20;2.43;;;1.10;;
37451;SDS011;23314;51.114;6.900;2024-03-29T00:27:45;2.07;;;1.00;;
37451;SDS011;23314;51.114;6.900;2024-03-29T00:30:11;1.53;;;0.90;;
37451;SDS011;23314;51.114;6.900;2024-03-29T00:32:37;2.47;;;1.30;;
37451;SDS011;23314;51.114;6.900;2024-03-29T00:35:02;7.50;;;1.20;;
37451;SDS011;23314;51.114;6.900;2024-03-29T00:37:28;4.53;;;1.13;;
37451;SDS011;23314;51.114;6.900;2024-03-29T00:39:53;1.90;;;0.90;;
37451;SDS011;23314;51.114;6.900;2024-03-29T00:42:19;5.80;;;1.50;;
37451;SDS011;23314;51.114;6.900;2024-03-29T00:44:44;4.00;;;1.40;;
37451;SDS011;23314;51.114;6.900;2024-03-29T00:47:10;7.10;;;1.60;;
37451;SDS011;23314;51.114;6.900;2024-03-29T00:49:35;2.73;;;1.10;;
37451;SDS011;23314;51.114;6.900;2024-03-29T00:52:01;2.07;;;1.10;;
37451;SDS011;23314;51.114;6.900;2024-03-29T00:54:27;6.17;;;1.00;;
37451;SDS011;23314;51.114;6.900;2024-03-29T00:56:53;2.17;;;1.20;;
37451;SDS011;23314;51.114;6.900;2024-03-29T00:59:18;5.20;;;1.30;;
37451;SDS011;23314;51.114;6.900;2024-03-29T01:01:44;6.30;;;1.13;;
37451;SDS011;23314;51.114;6.900;2024-03-29T01:04:10;2.07;;;0.90;;
37451;SDS011;23314;51.114;6.900;2024-03-29T01:06:35;2.13;;;1.40;;
37451;SDS011;23314;51.114;6.900;2024-03-29T01:09:01;2.50;;;1.13;;
37451;SDS011;23314;51.114;6.900;2024-03-29T01:11:26;6.03;;;1.30;;
37451;SDS011;23314;51.114;6.900;2024-03-29T01:13:52;3.27;;;1.20;;
37451;SDS011;23314;51.114;6.900;2024-03-29T01:16:17;4.10;;;1.40;;
37451;SDS011;23314;51.114;6.900;2024-03-29T01:18:43;3.57;;;1.33;;
37451;SDS011;23314;51.114;6.900;2024-03-29T01:21:09;4.83;;;1.50;;
37451;SDS011;23314;51.114;6.900;2024-03-29T01:23:34;3.00;;;1.20;;
37451;SDS011;23314;51.114;6.900;2024-03-29T01:25:59;4.70;;;1.50;;
37451;SDS011;23314;51.114;6.900;2024-03-29T01:28:25;4.03;;;1.30;;
37451;SDS011;23314;51.114;6.900;2024-03-29T01:30:52;5.33;;;1.40;;
37451;SDS011;23314;51.114;6.900;2024-03-29T01:33:17;5.07;;;1.20;;
37451;SDS011;23314;51.114;6.900;2024-03-29T01:35:43;3.27;;;1.10;;
37451;SDS011;23314;51.114;6.900;2024-03-29T01:38:08;4.27;;;1.37;;
37451;SDS011;23314;51.114;6.900;2024-03-29T01:40:34;2.17;;;1.20;;
37451;SDS011;23314;51.114;6.900;2024-03-29T01:43:00;2.43;;;1.20;;
37451;SDS011;23314;51.114;6.900;2024-03-29T01:45:26;2.43;;;1.10;;
37451;SDS011;23314;51.114;6.900;2024-03-29T01:47:53;3.73;;;1.20;;
37451;SDS011;23314;51.114;6.900;2024-03-29T01:50:18;2.37;;;1.20;;
37451;SDS011;23314;51.114;6.900;2024-03-29T01:52:43;3.43;;;1.17;;
37451;SDS011;23314;51.114;6.900;2024-03-29T01:55:09;4.13;;;1.40;;
37451;SDS011;23314;51.114;6.900;2024-03-29T01:57:35;5.07;;;1.30;;
37451;SDS011;23314;51.114;6.900;2024-03-29T02:00:00;4.47;;;1.40;;
37451;SDS011;23314;51.114;6.900;2024-03-29T02:02:30;5.50;;;1.57;;
37451;SDS011;23314;51.114;6.900;2024-03-29T02:04:55;2.77;;;1.40;;
37451;SDS011;23314;51.114;6.900;2024-03-29T02:07:21;2.63;;;1.33;;
37451;SDS011;23314;51.114;6.900;2024-03-29T02:09:47;2.30;;;1.30;;
37451;SDS011;23314;51.114;6.900;2024-03-29T02:12:13;2.47;;;1.53;;
37451;SDS011;23314;51.114;6.900;2024-03-29T02:14:38;2.50;;;1.10;;
37451;SDS011;23314;51.114;6.900;2024-03-29T02:17:05;2.30;;;1.07;;
37451;SDS011;23314;51.114;6.900;2024-03-29T02:19:31;2.90;;;1.23;;
37451;SDS011;23314;51.114;6.900;2024-03-29T02:21:56;2.00;;;1.00;;
37451;SDS011;23314;51.114;6.900;2024-03-29T02:24:25;2.07;;;1.00;;
37451;SDS011;23314;51.114;6.900;2024-03-29T02:26:51;3.53;;;1.40;;
37451;SDS011;23314;51.114;6.900;2024-03-29T02:29:19;2.63;;;1.30;;
37451;SDS011;23314;51.114;6.900;2024-03-29T02:31:44;3.70;;;1.50;;
37451;SDS011;23314;51.114;6.900;2024-03-29T02:34:10;3.70;;;1.30;;
37451;SDS011;23314;51.114;6.900;2024-03-29T02:36:35;3.63;;;1.30;;
37451;SDS011;23314;51.114;6.900;2024-03-29T02:39:01;3.77;;;1.47;;
37451;SDS011;23314;51.114;6.900;2024-03-29T02:41:26;3.73;;;1.20;;
37451;SDS011;23314;51.114;6.900;2024-03-29T02:43:51;2.27;;;1.30;;
37451;SDS011;23314;51.114;6.900;2024-03-29T02:46:17;3.83;;;1.10;;
37451;SDS011;23314;51.114;6.900;2024-03-29T02:48:42;3.47;;;1.10;;
37451;SDS011;23314;51.114;6.900;2024-03-29T02:51:08;2.77;;;1.10;;
37451;SDS011;23314;51.114;6.900;2024-03-29T02:53:33;2.53;;;1.37;;
37451;SDS011;23314;51.114;6.900;2024-03-29T02:55:58;3.63;;;0.97;;
37451;SDS011;23314;51.114;6.900;2024-03-29T02:58:23;1.93;;;1.03;;
37451;SDS011;23314;51.114;6.900;2024-03-29T03:00:49;2.57;;;1.00;;
37451;SDS011;23314;51.114;6.900;2024-03-29T03:03:15;1.87;;;1.30;;
37451;SDS011;23314;51.114;6.900;2024-03-29T03:05:41;2.30;;;1.00;;
37451;SDS011;23314;51.114;6.900;2024-03-29T03:08:06;5.20;;;1.47;;
37451;SDS011;23314;51.114;6.900;2024-03-29T03:10:50;2.67;;;1.20;;
37451;SDS011;23314;51.114;6.900;2024-03-29T03:13:24;6.83;;;1.40;;
37451;SDS011;23314;51.114;6.900;2024-03-29T03:15:49;2.43;;;1.17;;
37451;SDS011;23314;51.114;6.900;2024-03-29T03:18:15;2.43;;;0.80;;
37451;SDS011;23314;51.114;6.900;2024-03-29T03:20:40;3.80;;;1.10;;
37451;SDS011;23314;51.114;6.900;2024-03-29T03:23:05;2.83;;;1.20;;
37451;SDS011;23314;51.114;6.900;2024-03-29T03:25:31;2.20;;;1.30;;
37451;SDS011;23314;51.114;6.900;2024-03-29T03:27:57;1.93;;;0.93;;
37451;SDS011;23314;51.114;6.900;2024-03-29T03:30:22;3.80;;;1.07;;
37451;SDS011;23314;51.114;6.900;2024-03-29T03:32:48;1.73;;;1.00;;
37451;SDS011;23314;51.114;6.900;2024-03-29T03:35:13;3.93;;;1.50;;
37451;SDS011;23314;51.114;6.900;2024-03-29T03:37:39;2.77;;;1.10;;
37451;SDS011;23314;51.114;6.900;2024-03-29T03:40:04;1.97;;;1.00;;
37451;SDS011;23314;51.114;6.900;2024-03-29T03:42:31;3.07;;;1.10;;
37451;SDS011;23314;51.114;6.900;2024-03-29T03:44:57;3.13;;;1.33;;
37451;SDS011;23314;51.114;6.900;2024-03-29T03:47:22;6.43;;;1.30;;
37451;SDS011;23314;51.114;6.900;2024-03-29T03:49:47;2.30;;;1.07;;
37451;SDS011;23314;51.114;6.900;2024-03-29T03:52:13;2.60;;;1.30;;
37451;SDS011;23314;51.114;6.900;2024-03-29T03:54:38;2.67;;;1.30;;
37451;SDS011;23314;51.114;6.900;2024-03-29T03:57:04;4.43;;;1.47;;
37451;SDS011;23314;51.114;6.900;2024-03-29T03:59:29;3.50;;;1.20;;
37451;SDS011;23314;51.114;6.900;2024-03-29T04:01:54;3.30;;;1.20;;
37451;SDS011;23314;51.114;6.900;2024-03-29T04:04:20;4.00;;;1.10;;
37451;SDS011;23314;51.114;6.900;2024-03-29T04:06:45;3.00;;;1.27;;
37451;SDS011;23314;51.114;6.900;2024-03-29T04:09:11;3.97;;;1.23;;
37451;SDS011;23314;51.114;6.900;2024-03-29T04:11:40;3.83;;;1.10;;
37451;SDS011;23314;51.114;6.900;2024-03-29T04:14:06;2.50;;;1.10;;
37451;SDS011;23314;51.114;6.900;2024-03-29T04:16:31;3.87;;;1.10;;
37451;SDS011;23314;51.114;6.900;2024-03-29T04:18:57;3.30;;;1.30;;
37451;SDS011;23314;51.114;6.900;2024-03-29T04:21:22;2.10;;;1.37;;
37451;SDS011;23314;51.114;6.900;2024-03-29T04:23:47;2.33;;;1.00;;
37451;SDS011;23314;51.114;6.900;2024-03-29T04:26:13;2.40;;;1.00;;
37451;SDS011;23314;51.114;6.900;2024-03-29T04:28:38;3.17;;;1.20;;
37451;SDS011;23314;51.114;6.900;2024-03-29T04:31:03;4.37;;;1.33;;
37451;SDS011;23314;51.114;6.900;2024-03-29T04:33:29;2.77;;;1.30;;
37451;SDS011;23314;51.114;6.900;2024-03-29T04:35:55;1.67;;;1.10;;
37451;SDS011;23314;51.114;6.900;2024-03-29T04:38:25;1.67;;;0.90;;
37451;SDS011;23314;51.114;6.900;2024-03-29T04:40:52;1.13;;;1.10;;
37451;SDS011;23314;51.114;6.900;2024-03-29T04:43:18;2.70;;;1.20;;
37451;SDS011;23314;51.114;6.900;2024-03-29T04:45:44;2.90;;;1.10;;
37451;SDS011;23314;51.114;6.900;2024-03-29T04:48:10;1.23;;;1.10;;
37451;SDS011;23314;51.114;6.900;2024-03-29T04:50:36;3.00;;;1.20;;
37451;SDS011;23314;51.114;6.900;2024-03-29T04:53:02;3.53;;;1.20;;
37451;SDS011;23314;51.114;6.900;2024-03-29T04:55:27;4.93;;;1.23;;
37451;SDS011;23314;51.114;6.900;2024-03-29T04:57:52;3.03;;;1.20;;
37451;SDS011;23314;51.114;6.900;2024-03-29T05:00:18;2.17;;;1.30;;
37451;SDS011;23314;51.114;6.900;2024-03-29T05:02:43;3.57;;;1.20;;
37451;SDS011;23314;51.114;6.900;2024-03-29T05:05:08;6.50;;;1.30;;
37451;SDS011;23314;51.114;6.900;2024-03-29T05:07:34;4.73;;;1.10;;
37451;SDS011;23314;51.114;6.900;2024-03-29T05:09:59;3.47;;;1.07;;
37451;SDS011;23314;51.114;6.900;2024-03-29T05:12:25;1.30;;;0.93;;
37451;SDS011;23314;51.114;6.900;2024-03-29T05:14:50;2.30;;;1.27;;
37451;SDS011;23314;51.114;6.900;2024-03-29T05:17:15;3.40;;;1.10;;
37451;SDS011;23314;51.114;6.900;2024-03-29T05:19:42;1.60;;;1.30;;
37451;SDS011;23314;51.114;6.900;2024-03-29T05:22:08;2.60;;;1.10;;
37451;SDS011;23314;51.114;6.900;2024-03-29T05:24:33;4.07;;;1.20;;
37451;SDS011;23314;51.114;6.900;2024-03-29T05:26:58;3.00;;;1.40;;
37451;SDS011;23314;51.114;6.900;2024-03-29T05:29:24;4.40;;;1.20;;
37451;SDS011;23314;51.114;6.900;2024-03-29T05:31:49;1.30;;;1.00;;
37451;SDS011;23314;51.114;6.900;2024-03-29T05:34:14;4.57;;;1.30;;
37451;SDS011;23314;51.114;6.900;2024-03-29T05:36:40;3.37;;;1.23;;
37451;SDS011;23314;51.114;6.900;2024-03-29T05:39:05;4.13;;;1.40;;
37451;SDS011;23314;51.114;6.900;2024-03-29T05:41:31;4.43;;;1.50;;
37451;SDS011;23314;51.114;6.900;2024-03-29T05:43:57;3.37;;;1.40;;
37451;SDS011;23314;51.114;6.900;2024-03-29T05:46:23;2.70;;;1.50;;
37451;SDS011;23314;51.114;6.900;2024-03-29T05:48:48;5.77;;;2.23;;
37451;SDS011;23314;51.114;6.900;2024-03-29T05:51:13;7.87;;;1.73;;
37451;SDS011;23314;51.114;6.900;2024-03-29T05:53:39;6.70;;;1.70;;
37451;SDS011;23314;51.114;6.900;2024-03-29T05:56:05;4.97;;;1.60;;
37451;SDS011;23314;51.114;6.900;2024-03-29T05:58:30;3.97;;;1.40;;
37451;SDS011;23314;51.114;6.900;2024-03-29T06:00:56;5.13;;;2.03;;
37451;SDS011;23314;51.114;6.900;2024-03-29T06:03:22;2.87;;;1.80;;
37451;SDS011;23314;51.114;6.900;2024-03-29T06:05:48;4.07;;;2.17;;
37451;SDS011;23314;51.114;6.900;2024-03-29T06:08:13;4.10;;;1.70;;
37451;SDS011;23314;51.114;6.900;2024-03-29T06:10:38;3.13;;;1.57;;
37451;SDS011;23314;51.114;6.900;2024-03-29T06:13:04;4.87;;;1.87;;
37451;SDS011;23314;51.114;6.900;2024-03-29T06:15:34;5.53;;;2.17;;
37451;SDS011;23314;51.114;6.900;2024-03-29T06:18:18;4.37;;;1.70;;
37451;SDS011;23314;51.114;6.900;2024-03-29T06:20:47;3.47;;;1.40;;
37451;SDS011;23314;51.114;6.900;2024-03-29T06:23:13;4.53;;;1.57;;
37451;SDS011;23314;51.114;6.900;2024-03-29T06:25:38;6.33;;;1.90;;
37451;SDS011;23314;51.114;6.900;2024-03-29T06:28:04;2.40;;;1.70;;
37451;SDS011;23314;51.114;6.900;2024-03-29T06:30:29;4.07;;;1.73;;
37451;SDS011;23314;51.114;6.900;2024-03-29T06:32:55;5.27;;;1.77;;
37451;SDS011;23314;51.114;6.900;2024-03-29T06:35:20;2.37;;;1.57;;
37451;SDS011;23314;51.114;6.900;2024-03-29T06:37:47;3.17;;;1.60;;
37451;SDS011;23314;51.114;6.900;2024-03-29T06:40:12;4.63;;;1.70;;
37451;SDS011;23314;51.114;6.900;2024-03-29T06:42:38;2.83;;;1.73;;
37451;SDS011;23314;51.114;6.900;2024-03-29T06:45:03;4.10;;;2.03;;
37451;SDS011;23314;51.114;6.900;2024-03-29T06:47:30;4.33;;;1.93;;
37451;SDS011;23314;51.114;6.900;2024-03-29T06:49:56;3.73;;;1.90;;
37451;SDS011;23314;51.114;6.900;2024-03-29T06:52:22;6.40;;;2.10;;
37451;SDS011;23314;51.114;6.900;2024-03-29T06:54:47;4.00;;;1.60;;
37451;SDS011;23314;51.114;6.900;2024-03-29T06:57:12;5.10;;;1.80;;
37451;SDS011;23314;51.114;6.900;2024-03-29T06:59:40;5.90;;;1.67;;
37451;SDS011;23314;51.114;6.900;2024-03-29T07:02:06;4.53;;;1.77;;
37451;SDS011;23314;51.114;6.900;2024-03-29T07:04:31;4.17;;;1.60;;
37451;SDS011;23314;51.114;6.900;2024-03-29T07:06:56;2.57;;;1.57;;
37451;SDS011;23314;51.114;6.900;2024-03-29T07:09:22;2.70;;;1.47;;
37451;SDS011;23314;51.114;6.900;2024-03-29T07:11:49;4.20;;;1.50;;
37451;SDS011;23314;51.114;6.900;2024-03-29T07:14:15;3.80;;;1.40;;
37451;SDS011;23314;51.114;6.900;2024-03-29T07:16:41;3.00;;;1.50;;
37451;SDS011;23314;51.114;6.900;2024-03-29T07:19:07;2.57;;;1.13;;
37451;SDS011;23314;51.114;6.900;2024-03-29T07:21:32;1.73;;;1.30;;
37451;SDS011;23314;51.114;6.900;2024-03-29T07:23:58;2.97;;;1.40;;
37451;SDS011;23314;51.114;6.900;2024-03-29T07:26:23;3.27;;;1.20;;
37451;SDS011;23314;51.114;6.900;2024-03-29T07:28:49;2.57;;;1.27;;
37451;SDS011;23314;51.114;6.900;2024-03-29T07:31:14;1.50;;;1.30;;
37451;SDS011;23314;51.114;6.900;2024-03-29T07:33:39;3.00;;;1.10;;
37451;SDS011;23314;51.114;6.900;2024-03-29T07:36:05;3.30;;;1.40;;
37451;SDS011;23314;51.114;6.900;2024-03-29T07:38:31;1.67;;;1.57;;
37451;SDS011;23314;51.114;6.900;2024-03-29T07:40:56;2.57;;;1.30;;
37451;SDS011;23314;51.114;6.900;2024-03-29T07:43:22;1.70;;;1.13;;
37451;SDS011;23314;51.114;6.900;2024-03-29T07:45:47;1.93;;;1.50;;
37451;SDS011;23314;51.114;6.900;2024-03-29T07:48:14;2.43;;;1.57;;
37451;SDS011;23314;51.114;6.900;2024-03-29T07:50:43;1.40;;;1.30;;
37451;SDS011;23314;51.114;6.900;2024-03-29T07:53:09;3.80;;;1.50;;
37451;SDS011;23314;51.114;6.900;2024-03-29T07:55:36;1.33;;;1.23;;
37451;SDS011;23314;51.114;6.900;2024-03-29T07:58:02;1.80;;;1.30;;
37451;SDS011;23314;51.114;6.900;2024-03-29T08:00:30;2.80;;;1.20;;
37451;SDS011;23314;51.114;6.900;2024-03-29T08:02:57;2.40;;;1.27;;
37451;SDS011;23314;51.114;6.900;2024-03-29T08:05:23;2.70;;;1.10;;
37451;SDS011;23314;51.114;6.900;2024-03-29T08:07:48;1.53;;;1.13;;
37451;SDS011;23314;51.114;6.900;2024-03-29T08:10:13;1.10;;;1.00;;
37451;SDS011;23314;51.114;6.900;2024-03-29T08:12:39;2.17;;;1.10;;
37451;SDS011;23314;51.114;6.900;2024-03-29T08:15:04;1.37;;;1.20;;
37451;SDS011;23314;51.114;6.900;2024-03-29T08:17:30;1.40;;;1.30;;
37451;SDS011;23314;51.114;6.900;2024-03-29T08:19:55;1.37;;;1.27;;
37451;SDS011;23314;51.114;6.900;2024-03-29T08:22:21;2.23;;;1.40;;
37451;SDS011;23314;51.114;6.900;2024-03-29T08:24:46;1.20;;;1.20;;
37451;SDS011;23314;51.114;6.900;2024-03-29T08:27:11;2.23;;;1.20;;
37451;SDS011;23314;51.114;6.900;2024-03-29T08:29:37;1.30;;;1.13;;
37451;SDS011;23314;51.114;6.900;2024-03-29T08:32:02;1.43;;;1.00;;
37451;SDS011;23314;51.114;6.900;2024-03-29T08:34:28;1.70;;;1.60;;
37451;SDS011;23314;51.114;6.900;2024-03-29T08:36:59;1.20;;;1.10;;
37451;SDS011;23314;51.114;6.900;2024-03-29T08:39:25;2.63;;;1.27;;
37451;SDS011;23314;51.114;6.900;2024-03-29T08:41:51;3.20;;;1.07;;
37451;SDS011;23314;51.114;6.900;2024-03-29T08:44:16;3.03;;;1.77;;
37451;SDS011;23314;51.114;6.900;2024-03-29T08:46:41;3.10;;;0.90;;
37451;SDS011;23314;51.114;6.900;2024-03-29T08:49:06;0.90;;;0.90;;
37451;SDS011;23314;51.114;6.900;2024-03-29T08:51:32;1.53;;;1.10;;
37451;SDS011;23314;51.114;6.900;2024-03-29T08:53:57;1.50;;;0.90;;
37451;SDS011;23314;51.114;6.900;2024-03-29T08:56:23;1.37;;;1.00;;
37451;SDS011;23314;51.114;6.900;2024-03-29T08:58:48;1.00;;;0.80;;
37451;SDS011;23314;51.114;6.900;2024-03-29T09:01:14;1.30;;;1.20;;
37451;SDS011;23314;51.114;6.900;2024-03-29T09:03:40;1.63;;;1.20;;
37451;SDS011;23314;51.114;6.900;2024-03-29T09:06:05;3.77;;;0.93;;
37451;SDS011;23314;51.114;6.900;2024-03-29T09:08:31;1.03;;;1.00;;
37451;SDS011;23314;51.114;6.900;2024-03-29T09:10:56;1.13;;;1.07;;
37451;SDS011;23314;51.114;6.900;2024-03-29T09:13:21;1.50;;;1.17;;
37451;SDS011;23314;51.114;6.900;2024-03-29T09:15:47;0.90;;;0.90;;
37451;SDS011;23314;51.114;6.900;2024-03-29T09:18:14;0.97;;;0.70;;
37451;SDS011;23314;51.114;6.900;2024-03-29T09:20:55;0.60;;;0.53;;
37451;SDS011;23314;51.114;6.900;2024-03-29T09:23:24;1.33;;;0.90;;
37451;SDS011;23314;51.114;6.900;2024-03-29T09:25:50;0.90;;;0.90;;
37451;SDS011;23314;51.114;6.900;2024-03-29T09:28:16;0.73;;;0.73;;
37451;SDS011;23314;51.114;6.900;2024-03-29T09:30:42;0.90;;;0.90;;
37451;SDS011;23314;51.114;6.900;2024-03-29T09:33:07;0.97;;;0.90;;
37451;SDS011;23314;51.114;6.900;2024-03-29T09:35:34;1.53;;;0.80;;
37451;SDS011;23314;51.114;6.900;2024-03-29T09:38:00;2.33;;;1.00;;
37451;SDS011;23314;51.114;6.900;2024-03-29T09:40:26;2.60;;;1.00;;
37451;SDS011;23314;51.114;6.900;2024-03-29T09:42:53;1.57;;;1.00;;
37451;SDS011;23314;51.114;6.900;2024-03-29T09:45:29;1.80;;;0.80;;
37451;SDS011;23314;51.114;6.900;2024-03-29T09:47:58;1.93;;;0.97;;
37451;SDS011;23314;51.114;6.900;2024-03-29T09:50:25;1.37;;;1.00;;
37451;SDS011;23314;51.114;6.900;2024-03-29T09:52:50;1.07;;;0.97;;
37451;SDS011;23314;51.114;6.900;2024-03-29T09:55:18;1.37;;;1.27;;
37451;SDS011;23314;51.114;6.900;2024-03-29T09:57:45;1.10;;;1.00;;
37451;SDS011;23314;51.114;6.900;2024-03-29T10:00:10;1.43;;;1.10;;
37451;SDS011;23314;51.114;6.900;2024-03-29T10:02:36;3.93;;;1.10;;
37451;SDS011;23314;51.114;6.900;2024-03-29T10:05:02;1.20;;;1.10;;
37451;SDS011;23314;51.114;6.900;2024-03-29T10:07:31;1.87;;;1.00;;
37451;SDS011;23314;51.114;6.900;2024-03-29T10:09:59;0.80;;;0.80;;
37451;SDS011;23314;51.114;6.900;2024-03-29T10:12:27;1.50;;;0.90;;
37451;SDS011;23314;51.114;6.900;2024-03-29T10:14:52;0.90;;;0.90;;
37451;SDS011;23314;51.114;6.900;2024-03-29T10:17:20;2.80;;;1.33;;
37451;SDS011;23314;51.114;6.900;2024-03-29T10:19:46;1.60;;;0.77;;
37451;SDS011;23314;51.114;6.900;2024-03-29T10:22:12;0.90;;;0.90;;
37451;SDS011;23314;51.114;6.900;2024-03-29T10:24:38;0.87;;;0.87;;
37451;SDS011;23314;51.114;6.900;2024-03-29T10:27:03;1.00;;;1.00;;
37451;SDS011;23314;51.114;6.900;2024-03-29T10:29:29;0.90;;;0.90;;
37451;SDS011;23314;51.114;6.900;2024-03-29T10:31:55;0.90;;;0.70;;
37451;SDS011;23314;51.114;6.900;2024-03-29T10:34:20;1.07;;;0.80;;
37451;SDS011;23314;51.114;6.900;2024-03-29T10:36:46;0.90;;;0.80;;
37451;SDS011;23314;51.114;6.900;2024-03-29T10:39:13;0.70;;;0.70;;
37451;SDS011;23314;51.114;6.900;2024-03-29T10:41:42;1.00;;;0.70;;
37451;SDS011;23314;51.114;6.900;2024-03-29T10:44:11;0.60;;;0.60;;
37451;SDS011;23314;51.114;6.900;2024-03-29T10:46:38;0.80;;;0.63;;
37451;SDS011;23314;51.114;6.900;2024-03-29T10:49:07;3.40;;;0.80;;
37451;SDS011;23314;51.114;6.900;2024-03-29T10:51:38;1.60;;;0.80;;
37451;SDS011;23314;51.114;6.900;2024-03-29T10:54:05;0.80;;;0.80;;
37451;SDS011;23314;51.114;6.900;2024-03-29T10:56:33;0.50;;;0.50;;
37451;SDS011;23314;51.114;6.900;2024-03-29T10:59:01;1.37;;;0.70;;
37451;SDS011;23314;51.114;6.900;2024-03-29T11:01:34;1.60;;;0.83;;
37451;SDS011;23314;51.114;6.900;2024-03-29T11:04:01;0.97;;;0.97;;
37451;SDS011;23314;51.114;6.900;2024-03-29T11:06:37;0.73;;;0.67;;
37451;SDS011;23314;51.114;6.900;2024-03-29T11:09:06;1.13;;;0.73;;
37451;SDS011;23314;51.114;6.900;2024-03-29T11:11:34;0.93;;;0.80;;
37451;SDS011;23314;51.114;6.900;2024-03-29T11:14:08;0.80;;;0.80;;
37451;SDS011;23314;51.114;6.900;2024-03-29T11:16:37;2.60;;;0.88;;
37451;SDS011;23314;51.114;6.900;2024-03-29T11:19:06;1.07;;;0.70;;
37451;SDS011;23314;51.114;6.900;2024-03-29T11:21:32;1.70;;;0.80;;
37451;SDS011;23314;51.114;6.900;2024-03-29T11:23:58;0.70;;;0.68;;
37451;SDS011;23314;51.114;6.900;2024-03-29T11:26:28;2.60;;;1.20;;
37451;SDS011;23314;51.114;6.900;2024-03-29T11:28:54;1.88;;;1.00;;
37451;SDS011;23314;51.114;6.900;2024-03-29T11:31:22;1.00;;;1.00;;
37451;SDS011;23314;51.114;6.900;2024-03-29T11:33:49;1.85;;;1.15;;
37451;SDS011;23314;51.114;6.900;2024-03-29T11:36:18;0.80;;;0.80;;
37451;SDS011;23314;51.114;6.900;2024-03-29T11:38:46;1.25;;;0.90;;
37451;SDS011;23314;51.114;6.900;2024-03-29T11:41:17;1.75;;;1.00;;
37451;SDS011;23314;51.114;6.900;2024-03-29T11:43:43;1.33;;;1.10;;
37451;SDS011;23314;51.114;6.900;2024-03-29T11:46:10;3.30;;;0.80;;
37451;SDS011;23314;51.114;6.900;2024-03-29T11:48:37;10.55;;;8.45;;
37451;SDS011;23314;51.114;6.900;2024-03-29T11:51:04;2.88;;;2.67;;
37451;SDS011;23314;51.114;6.900;2024-03-29T11:53:31;2.60;;;2.40;;
37451;SDS011;23314;51.114;6.900;2024-03-29T11:55:57;3.65;;;2.53;;
37451;SDS011;23314;51.114;6.900;2024-03-29T11:58:30;5.20;;;4.65;;
37451;SDS011;23314;51.114;6.900;2024-03-29T12:00:57;2.38;;;2.25;;
37451;SDS011;23314;51.114;6.900;2024-03-29T12:03:24;5.07;;;4.57;;
37451;SDS011;23314;51.114;6.900;2024-03-29T12:05:51;0.85;;;0.85;;
37451;SDS011;23314;51.114;6.900;2024-03-29T12:08:19;1.70;;;1.50;;
37451;SDS011;23314;51.114;6.900;2024-03-29T12:10:45;7.28;;;5.22;;
37451;SDS011;23314;51.114;6.900;2024-03-29T12:13:10;9.95;;;8.85;;
37451;SDS011;23314;51.114;6.900;2024-03-29T12:15:36;3.55;;;3.22;;
37451;SDS011;23314;51.114;6.900;2024-03-29T12:18:02;3.70;;;3.00;;
37451;SDS011;23314;51.114;6.900;2024-03-29T12:20:30;4.93;;;4.15;;
37451;SDS011;23314;51.114;6.900;2024-03-29T12:23:00;4.55;;;4.18;;
37451;SDS011;23314;51.114;6.900;2024-03-29T12:25:27;13.68;;;11.32;;
37451;SDS011;23314;51.114;6.900;2024-03-29T12:27:56;10.10;;;8.77;;
37451;SDS011;23314;51.114;6.900;2024-03-29T12:30:23;4.95;;;4.22;;
37451;SDS011;23314;51.114;6.900;2024-03-29T12:32:59;1.70;;;1.60;;
37451;SDS011;23314;51.114;6.900;2024-03-29T12:35:28;2.25;;;1.90;;
37451;SDS011;23314;51.114;6.900;2024-03-29T12:38:00;2.00;;;0.82;;
37451;SDS011;23314;51.114;6.900;2024-03-29T12:40:31;2.03;;;0.95;;
37451;SDS011;23314;51.114;6.900;2024-03-29T12:43:06;1.52;;;1.42;;
37451;SDS011;23314;51.114;6.900;2024-03-29T12:45:35;7.03;;;6.25;;
37451;SDS011;23314;51.114;6.900;2024-03-29T12:48:01;4.25;;;3.60;;
37451;SDS011;23314;51.114;6.900;2024-03-29T12:50:28;2.90;;;2.70;;
37451;SDS011;23314;51.114;6.900;2024-03-29T12:52:55;2.33;;;1.50;;
37451;SDS011;23314;51.114;6.900;2024-03-29T12:55:24;3.70;;;1.50;;
37451;SDS011;23314;51.114;6.900;2024-03-29T12:57:53;0.80;;;0.80;;
37451;SDS011;23314;51.114;6.900;2024-03-29T13:00:20;2.87;;;2.67;;
37451;SDS011;23314;51.114;6.900;2024-03-29T13:02:45;4.23;;;3.40;;
37451;SDS011;23314;51.114;6.900;2024-03-29T13:05:10;3.40;;;3.30;;
37451;SDS011;23314;51.114;6.900;2024-03-29T13:07:36;5.60;;;5.10;;
37451;SDS011;23314;51.114;6.900;2024-03-29T13:10:01;1.00;;;1.00;;
37451;SDS011;23314;51.114;6.900;2024-03-29T13:12:30;1.45;;;0.80;;
37451;SDS011;23314;51.114;6.900;2024-03-29T13:14:56;1.95;;;0.90;;
37451;SDS011;23314;51.114;6.900;2024-03-29T13:17:21;1.50;;;1.40;;
37451;SDS011;23314;51.114;6.900;2024-03-29T13:19:47;2.42;;;2.25;;
37451;SDS011;23314;51.114;6.900;2024-03-29T13:22:12;2.90;;;2.15;;
37451;SDS011;23314;51.114;6.900;2024-03-29T13:24:37;0.75;;;0.75;;
37451;SDS011;23314;51.114;6.900;2024-03-29T13:27:03;1.55;;;0.90;;
37451;SDS011;23314;51.114;6.900;2024-03-29T13:29:29;0.80;;;0.80;;
37451;SDS011;23314;51.114;6.900;2024-03-29T13:31:55;1.10;;;0.60;;
37451;SDS011;23314;51.114;6.900;2024-03-29T13:34:21;0.50;;;0.50;;
37451;SDS011;23314;51.114;6.900;2024-03-29T13:36:47;0.50;;;0.50;;
37451;SDS011;23314;51.114;6.900;2024-03-29T13:39:13;0.50;;;0.50;;
37451;SDS011;23314;51.114;6.900;2024-03-29T13:41:39;1.02;;;0.77;;
37451;SDS011;23314;51.114;6.900;2024-03-29T13:44:05;1.00;;;1.00;;
37451;SDS011;23314;51.114;6.900;2024-03-29T13:46:34;0.50;;;0.50;;
37451;SDS011;23314;51.114;6.900;2024-03-29T13:49:01;0.50;;;0.50;;
37451;SDS011;23314;51.114;6.900;2024-03-29T13:51:26;0.50;;;0.50;;
37451;SDS011;23314;51.114;6.900;2024-03-29T13:53:52;0.57;;;0.47;;
37451;SDS011;23314;51.114;6.900;2024-03-29T13:56:19;0.50;;;0.50;;
37451;SDS011;23314;51.114;6.900;2024-03-29T13:58:45;1.90;;;1.80;;
37451;SDS011;23314;51.114;6.900;2024-03-29T14:01:10;5.38;;;4.32;;
37451;SDS011;23314;51.114;6.900;2024-03-29T14:03:36;2.28;;;2.08;;
37451;SDS011;23314;51.114;6.900;2024-03-29T14:06:01;0.90;;;0.90;;
37451;SDS011;23314;51.114;6.900;2024-03-29T14:08:26;0.40;;;0.40;;
37451;SDS011;23314;51.114;6.900;2024-03-29T14:10:52;0.63;;;0.40;;
37451;SDS011;23314;51.114;6.900;2024-03-29T14:13:18;0.77;;;0.38;;
37451;SDS011;23314;51.114;6.900;2024-03-29T14:15:44;0.50;;;0.50;;
37451;SDS011;23314;51.114;6.900;2024-03-29T14:18:09;0.55;;;0.50;;
37451;SDS011;23314;51.114;6.900;2024-03-29T14:20:34;0.50;;;0.50;;
37451;SDS011;23314;51.114;6.900;2024-03-29T14:23:00;0.63;;;0.60;;
37451;SDS011;23314;51.114;6.900;2024-03-29T14:25:29;0.60;;;0.60;;
37451;SDS011;23314;51.114;6.900;2024-03-29T14:27:54;0.40;;;0.40;;
37451;SDS011;23314;51.114;6.900;2024-03-29T14:30:22;0.65;;;0.50;;
37451;SDS011;23314;51.114;6.900;2024-03-29T14:32:50;0.75;;;0.50;;
37451;SDS011;23314;51.114;6.900;2024-03-29T14:35:15;0.50;;;0.50;;
37451;SDS011;23314;51.114;6.900;2024-03-29T14:37:42;0.60;;;0.60;;
37451;SDS011;23314;51.114;6.900;2024-03-29T14:40:08;0.52;;;0.50;;
37451;SDS011;23314;51.114;6.900;2024-03-29T14:42:34;0.70;;;0.70;;